Lucinda Point, Queensland

6:05 PM AEST on February 08, 2016 (GMT +1000)
Macknade Mill | | Change Station
CLOSE
Current Station
Personal Weather Station
Location: Macknade, QUEENSLAND
Elevation: 30 ft
Nearby Weather Stations

Elev 30 ft 18.59 °S, 146.25 °E | Updated 1 minute ago

Overcast
Overcast
85.6 °F
Feels Like 100 °F
N
3.0
Wind Variable Wind from NE
Gusts 6.0 mph

Today
High -- | Low -- °F
--% Chance of Precip.
Yesterday
High -- | Low -- °F
Precip. -- in
Pressure 29.74 in
Visibility 6.2 miles
Clouds Few 500 ft
Scattered Clouds 2500 ft
Mostly Cloudy 13000 ft
Heat Index 100 °F
Dew Point 80 °F
Humidity 82%
Rainfall 0.23 in
Snow Depth Not available.
6:03 AM 6:52 PM
Waning Crescent, 0% visible
METAR YBTL 080730Z 05008KT 9999 -SHRA FEW005 SCT025 BKN130 29/26 Q1007 INTER 0730/0800 3000 SHRA BKN015 RMK USE TAF FOR ARRIVALS AFTER 0800Z
Pressure 29.74 in
Visibility 6.2 miles
Clouds Few 500 ft
Scattered Clouds 2500 ft
Mostly Cloudy 13000 ft
Heat Index 100 °F
Dew Point 80 °F
Humidity 82%
Rainfall 0.23 in
Snow Depth Not available.
6:03 AM 6:52 PM
Waning Crescent, 0% visible
METAR YBTL 080730Z 05008KT 9999 -SHRA FEW005 SCT025 BKN130 29/26 Q1007 INTER 0730/0800 3000 SHRA BKN015 RMK USE TAF FOR ARRIVALS AFTER 0800Z

10-Day Weather Forecast

Almanac

Astronomy

Feb. 08, 2016 Rise Set
Actual Time
Civil Twilight
Nautical Twilight
Astronomical Twilight
Moon
Length of Visible Light
Length of Day
Tomorrow will be .
, % of the Moon is Illuminated

Today's Extremes

Country Highs Country Lows

Community

WunderPhotos

Upload Photos

1,891,412 photos uploaded!

WunderBlog® & News

Nearby

Air Quality

  Air Quality AQ Index Pollutant
Not available.

Snow Depth

Station Depth Elevation

Earthquake Activity

City Distance Mag. Time & Date
Minimum magnitude displayed is 2.5.

Coastal Water Temperatures

Place Temperature

Stations

Nearby Weather Stations

Station Location Temp. Windchill Dew Point Humidity Wind Precip. Elev Updated Type